createdAt,value
2023-05-05T00:01:22.229Z,4.27
2023-05-05T00:03:48.980Z,4.50
2023-05-05T00:06:15.814Z,4.10
2023-05-05T00:08:42.443Z,4.60
2023-05-05T00:11:09.774Z,4.27
2023-05-05T00:13:36.358Z,3.30
2023-05-05T00:16:03.261Z,4.23
2023-05-05T00:18:29.889Z,3.73
2023-05-05T00:20:56.495Z,3.63
2023-05-05T00:23:23.159Z,4.50
2023-05-05T00:25:49.770Z,3.97
2023-05-05T00:28:17.135Z,3.97
2023-05-05T00:30:43.858Z,4.53
2023-05-05T00:33:10.712Z,3.93
2023-05-05T00:35:37.446Z,4.27
2023-05-05T00:38:04.398Z,3.60
2023-05-05T00:40:31.148Z,4.60
2023-05-05T00:42:58.849Z,3.90
2023-05-05T00:45:26.322Z,3.47
2023-05-05T00:47:56.496Z,4.33
2023-05-05T00:50:24.898Z,3.67
2023-05-05T00:52:53.859Z,3.67
2023-05-05T00:55:21.002Z,3.60
2023-05-05T00:57:48.447Z,4.10
2023-05-05T01:00:15.930Z,4.20
2023-05-05T01:02:44.418Z,4.13
2023-05-05T01:05:13.017Z,3.87
2023-05-05T01:07:50.457Z,4.10
2023-05-05T01:10:25.429Z,4.23
2023-05-05T01:13:01.987Z,3.97
2023-05-05T01:15:33.043Z,3.53
2023-05-05T01:18:08.097Z,4.20
2023-05-05T01:20:41.205Z,4.57
2023-05-05T01:23:09.700Z,3.40
2023-05-05T01:26:08.815Z,4.03
2023-05-05T01:28:54.970Z,4.07
2023-05-05T01:31:39.872Z,4.03
2023-05-05T01:34:09.724Z,3.73
2023-05-05T01:36:39.042Z,4.17
2023-05-05T01:39:11.876Z,4.70
2023-05-05T01:41:42.731Z,4.30
2023-05-05T01:44:11.540Z,4.30
2023-05-05T01:46:39.065Z,4.00
2023-05-05T01:49:06.821Z,3.33
2023-05-05T01:51:35.163Z,3.93
2023-05-05T01:54:07.037Z,3.40
2023-05-05T01:56:34.219Z,4.07
2023-05-05T01:59:01.492Z,3.43
2023-05-05T02:01:30.048Z,4.27
2023-05-05T02:03:59.054Z,4.03
2023-05-05T02:06:28.465Z,3.60
2023-05-05T02:08:57.642Z,3.70
2023-05-05T02:11:26.274Z,4.07
2023-05-05T02:13:54.231Z,3.33
2023-05-05T02:16:23.114Z,4.10
2023-05-05T02:18:50.515Z,4.00
2023-05-05T02:21:18.114Z,3.73
2023-05-05T02:23:47.478Z,4.27
2023-05-05T02:26:16.240Z,4.30
2023-05-05T02:28:47.957Z,4.43
2023-05-05T02:31:16.853Z,3.80
2023-05-05T02:33:45.372Z,3.33
2023-05-05T02:36:17.818Z,3.70
2023-05-05T02:38:46.984Z,4.50
2023-05-05T02:41:17.798Z,3.77
2023-05-05T02:43:46.028Z,4.03
2023-05-05T02:46:12.641Z,3.77
2023-05-05T02:48:39.401Z,4.90
2023-05-05T02:51:07.006Z,4.07
2023-05-05T02:53:34.855Z,5.20
2023-05-05T02:56:10.479Z,3.70
2023-05-05T02:58:45.946Z,4.33
2023-05-05T03:01:26.340Z,3.80
2023-05-05T03:04:02.878Z,4.03
2023-05-05T03:06:32.366Z,4.53
2023-05-05T03:09:06.687Z,4.40
2023-05-05T03:11:38.180Z,4.27
2023-05-05T03:14:08.970Z,3.90
2023-05-05T03:16:36.575Z,4.13
2023-05-05T03:19:04.224Z,4.10
2023-05-05T03:21:32.504Z,4.30
2023-05-05T03:23:59.331Z,5.30
2023-05-05T03:26:26.076Z,5.00
2023-05-05T03:28:53.315Z,3.57
2023-05-05T03:31:20.436Z,4.33
2023-05-05T03:33:47.104Z,6.47
2023-05-05T03:36:13.774Z,3.53
2023-05-05T03:38:40.506Z,4.37
2023-05-05T03:41:07.152Z,4.80
2023-05-05T03:43:33.841Z,4.00
2023-05-05T03:46:01.244Z,4.67
2023-05-05T03:48:28.080Z,4.50
2023-05-05T03:50:54.689Z,4.07
2023-05-05T03:53:21.378Z,5.50
2023-05-05T03:55:48.151Z,4.20
2023-05-05T03:58:14.820Z,4.43
2023-05-05T04:00:41.559Z,4.97
2023-05-05T04:03:09.119Z,4.23
2023-05-05T04:05:35.963Z,4.40
2023-05-05T04:08:02.863Z,4.93
2023-05-05T04:10:29.936Z,5.43
2023-05-05T04:12:56.681Z,4.27
2023-05-05T04:15:23.557Z,5.43
2023-05-05T04:17:50.230Z,4.03
2023-05-05T04:20:17.619Z,5.10
2023-05-05T04:22:44.350Z,4.67
2023-05-05T04:25:11.045Z,5.20
2023-05-05T04:27:37.678Z,4.50
2023-05-05T04:30:05.288Z,3.97
2023-05-05T04:32:32.262Z,4.80
2023-05-05T04:34:58.989Z,4.23
2023-05-05T04:37:26.609Z,4.63
2023-05-05T04:39:53.366Z,5.90
2023-05-05T04:42:19.974Z,5.10
2023-05-05T04:44:46.556Z,5.50
2023-05-05T04:47:14.648Z,6.10
2023-05-05T04:49:41.466Z,5.27
2023-05-05T04:52:08.029Z,9.67
2023-05-05T04:54:36.221Z,5.10
2023-05-05T04:57:03.358Z,4.77
2023-05-05T04:59:30.104Z,6.17
2023-05-05T05:01:56.722Z,5.17
2023-05-05T05:04:25.158Z,5.23
2023-05-05T05:06:52.036Z,4.73
2023-05-05T05:09:18.650Z,4.43
2023-05-05T05:11:46.020Z,4.60
2023-05-05T05:14:12.625Z,5.20
2023-05-05T05:16:39.338Z,4.93
2023-05-05T05:19:05.981Z,4.63
2023-05-05T05:21:32.871Z,4.43
2023-05-05T05:23:59.519Z,6.07
2023-05-05T05:26:26.728Z,5.23
2023-05-05T05:28:54.031Z,5.27
2023-05-05T05:31:20.994Z,5.43
2023-05-05T05:33:47.642Z,5.03
2023-05-05T05:36:14.285Z,4.63
2023-05-05T05:38:40.901Z,5.07
2023-05-05T05:41:07.498Z,6.57
2023-05-05T05:43:34.071Z,4.83
2023-05-05T05:46:01.444Z,5.00
2023-05-05T05:48:28.782Z,4.80
2023-05-05T05:50:56.284Z,4.80
2023-05-05T05:53:24.518Z,5.27
2023-05-05T05:55:51.086Z,5.83
2023-05-05T05:58:17.797Z,5.03
2023-05-05T06:00:45.020Z,5.13
2023-05-05T06:03:12.486Z,6.53
2023-05-05T06:05:39.248Z,5.93
2023-05-05T06:08:06.016Z,4.97
2023-05-05T06:10:32.901Z,5.03
2023-05-05T06:12:59.858Z,4.67
2023-05-05T06:15:26.511Z,5.10
2023-05-05T06:17:53.190Z,4.67
2023-05-05T06:20:20.525Z,4.93
2023-05-05T06:22:47.081Z,5.60
2023-05-05T06:25:13.787Z,5.43
2023-05-05T06:27:40.417Z,4.80
2023-05-05T06:30:08.988Z,5.40
2023-05-05T06:32:35.950Z,5.50
2023-05-05T06:35:02.662Z,5.20
2023-05-05T06:37:29.970Z,5.43
2023-05-05T06:39:56.572Z,5.63
2023-05-05T06:42:23.321Z,5.60
2023-05-05T06:44:49.959Z,5.40
2023-05-05T06:47:16.632Z,5.27
2023-05-05T06:49:43.202Z,5.37
2023-05-05T06:52:09.909Z,4.70
2023-05-05T06:54:37.193Z,5.33
2023-05-05T06:57:03.951Z,4.87
2023-05-05T06:59:30.528Z,5.67
2023-05-05T07:01:57.154Z,4.50
2023-05-05T07:04:23.810Z,5.17
2023-05-05T07:06:50.389Z,4.50
2023-05-05T07:09:17.974Z,4.90
2023-05-05T07:11:45.653Z,4.40
2023-05-05T07:14:12.407Z,4.37
2023-05-05T07:16:39.286Z,4.37
2023-05-05T07:19:05.962Z,5.57
2023-05-05T07:21:33.292Z,4.83
2023-05-05T07:24:00.470Z,5.00
2023-05-05T07:26:27.274Z,5.00
2023-05-05T07:28:55.455Z,5.07
2023-05-05T07:31:22.629Z,4.67
2023-05-05T07:33:49.309Z,4.10
2023-05-05T07:36:17.086Z,4.50
2023-05-05T07:38:43.674Z,4.90
2023-05-05T07:41:12.188Z,4.97
2023-05-05T07:43:41.253Z,5.20
2023-05-05T07:46:09.550Z,4.40
2023-05-05T07:48:36.336Z,6.70
2023-05-05T07:51:03.081Z,4.97
2023-05-05T07:53:30.189Z,5.33
2023-05-05T07:55:56.784Z,4.70
2023-05-05T07:58:23.482Z,4.60
2023-05-05T08:00:50.556Z,4.83
2023-05-05T08:03:19.838Z,5.27
2023-05-05T08:05:46.524Z,6.50
2023-05-05T08:08:13.205Z,5.97
2023-05-05T08:10:39.863Z,4.93
2023-05-05T08:13:07.739Z,5.47
2023-05-05T08:15:34.465Z,5.73
2023-05-05T08:18:01.157Z,5.67
2023-05-05T08:20:29.225Z,5.60
2023-05-05T08:22:55.993Z,5.57
2023-05-05T08:25:22.644Z,4.40
2023-05-05T08:27:49.281Z,5.33
2023-05-05T08:30:20.016Z,4.87
2023-05-05T08:32:46.706Z,4.97
2023-05-05T08:35:13.549Z,4.57
2023-05-05T08:37:41.131Z,5.70
2023-05-05T08:40:11.099Z,5.47
2023-05-05T08:42:39.482Z,5.80
2023-05-05T08:45:08.139Z,4.90
2023-05-05T08:47:36.456Z,5.43
2023-05-05T08:50:04.995Z,5.87
2023-05-05T08:52:38.971Z,5.30
2023-05-05T08:55:13.051Z,6.20
2023-05-05T08:57:50.116Z,5.77
2023-05-05T09:00:19.555Z,6.17
2023-05-05T09:02:47.084Z,5.85
2023-05-05T09:05:13.904Z,5.38
2023-05-05T09:07:42.915Z,5.40
2023-05-05T09:10:11.523Z,5.75
2023-05-05T09:12:40.649Z,5.30
2023-05-05T09:15:09.015Z,4.90
2023-05-05T09:17:36.213Z,5.50
2023-05-05T09:20:04.512Z,5.55
2023-05-05T09:22:36.513Z,5.65
2023-05-05T09:25:03.835Z,5.85
2023-05-05T09:27:35.102Z,4.90
2023-05-05T09:30:02.611Z,5.53
2023-05-05T09:32:30.994Z,4.87
2023-05-05T09:34:58.588Z,4.68
2023-05-05T09:37:28.653Z,5.03
2023-05-05T09:39:55.798Z,5.90
2023-05-05T09:42:22.399Z,4.75
2023-05-05T09:44:50.814Z,5.35
2023-05-05T09:47:28.892Z,5.20
2023-05-05T09:49:58.182Z,4.97
2023-05-05T09:52:24.845Z,4.28
2023-05-05T09:54:55.579Z,4.90
2023-05-05T09:57:29.330Z,4.15
2023-05-05T09:59:58.191Z,4.72
2023-05-05T10:02:32.583Z,4.57
2023-05-05T10:05:10.136Z,5.05
2023-05-05T10:07:37.618Z,4.85
2023-05-05T10:10:06.431Z,4.47
2023-05-05T10:12:36.095Z,4.47
2023-05-05T10:15:04.914Z,4.35
2023-05-05T10:17:35.413Z,5.13
2023-05-05T10:20:03.590Z,5.05
2023-05-05T10:22:36.390Z,4.63
2023-05-05T10:25:08.949Z,4.68
2023-05-05T10:27:42.142Z,5.13
2023-05-05T10:30:16.467Z,4.18
2023-05-05T10:32:57.344Z,5.30
2023-05-05T10:35:36.876Z,4.82
2023-05-05T10:38:07.344Z,4.72
2023-05-05T10:40:34.312Z,4.60
2023-05-05T10:43:01.101Z,3.53
2023-05-05T10:45:28.700Z,4.40
2023-05-05T10:47:58.632Z,4.63
2023-05-05T10:50:32.999Z,4.55
2023-05-05T10:53:12.032Z,5.22
2023-05-05T10:55:44.115Z,3.97
2023-05-05T10:58:31.648Z,4.72
2023-05-05T11:00:58.960Z,4.55
2023-05-05T11:03:26.170Z,4.30
2023-05-05T11:06:11.860Z,4.15
2023-05-05T11:08:40.241Z,4.68
2023-05-05T11:11:07.497Z,4.65
2023-05-05T11:13:34.169Z,4.18
2023-05-05T11:16:01.697Z,4.18
2023-05-05T11:18:35.030Z,4.20
2023-05-05T11:21:15.847Z,4.45
2023-05-05T11:23:47.212Z,5.13
2023-05-05T11:26:15.683Z,5.35
2023-05-05T11:28:57.481Z,4.15
2023-05-05T11:31:25.097Z,4.70
2023-05-05T11:33:52.221Z,4.15
2023-05-05T11:36:20.202Z,4.22
2023-05-05T11:39:02.038Z,4.43
2023-05-05T11:41:52.225Z,4.13
2023-05-05T11:44:20.379Z,3.58
2023-05-05T11:47:20.506Z,4.43
2023-05-05T11:49:50.141Z,4.13
2023-05-05T11:52:16.800Z,4.22
2023-05-05T11:54:46.935Z,4.68
2023-05-05T11:57:14.371Z,3.75
2023-05-05T11:59:52.486Z,4.10
2023-05-05T12:02:19.645Z,3.58
2023-05-05T12:04:47.329Z,3.72
2023-05-05T12:07:18.362Z,3.70
2023-05-05T12:09:46.527Z,3.65
2023-05-05T12:12:14.382Z,3.45
2023-05-05T12:14:51.076Z,4.05
2023-05-05T12:17:19.251Z,3.75
2023-05-05T12:19:50.571Z,3.90
2023-05-05T12:22:22.598Z,3.63
2023-05-05T12:24:56.538Z,3.83
2023-05-05T12:27:23.655Z,4.18
2023-05-05T12:29:50.641Z,3.15
2023-05-05T12:32:21.732Z,3.38
2023-05-05T12:34:50.066Z,3.40
2023-05-05T12:37:18.361Z,3.40
2023-05-05T12:39:45.106Z,3.90
2023-05-05T12:42:11.754Z,3.75
2023-05-05T12:44:39.544Z,3.88
2023-05-05T12:47:06.779Z,3.45
2023-05-05T12:49:45.217Z,3.70
2023-05-05T12:52:11.819Z,3.95
2023-05-05T12:54:54.888Z,4.00
2023-05-05T12:57:22.072Z,3.42
2023-05-05T12:59:48.937Z,3.22
2023-05-05T13:02:16.264Z,3.55
2023-05-05T13:04:50.368Z,3.67
2023-05-05T13:07:18.978Z,3.28
2023-05-05T13:09:46.769Z,3.83
2023-05-05T13:12:14.312Z,3.20
2023-05-05T13:14:41.293Z,3.45
2023-05-05T13:17:07.898Z,3.38
2023-05-05T13:19:40.852Z,3.08
2023-05-05T13:22:08.418Z,3.33
2023-05-05T13:24:49.951Z,3.30
2023-05-05T13:27:19.808Z,3.58
2023-05-05T13:29:46.471Z,3.25
2023-05-05T13:32:13.178Z,3.20
2023-05-05T13:34:39.833Z,3.13
2023-05-05T13:37:06.636Z,3.50
2023-05-05T13:39:33.428Z,3.20
2023-05-05T13:42:00.113Z,3.20
2023-05-05T13:44:27.407Z,3.30
2023-05-05T13:46:54.067Z,3.28
2023-05-05T13:49:20.759Z,3.33
2023-05-05T13:51:47.574Z,3.22
2023-05-05T13:54:14.266Z,3.08
2023-05-05T13:56:41.002Z,4.05
2023-05-05T13:59:07.692Z,3.05
2023-05-05T14:01:35.233Z,3.28
2023-05-05T14:04:05.201Z,3.88
2023-05-05T14:06:32.816Z,3.13
2023-05-05T14:08:59.564Z,3.67
2023-05-05T14:11:26.287Z,3.15
2023-05-05T14:13:53.407Z,3.13
2023-05-05T14:16:20.226Z,4.13
2023-05-05T14:18:47.684Z,3.58
2023-05-05T14:21:14.276Z,3.00
2023-05-05T14:23:41.141Z,3.28
2023-05-05T14:26:08.422Z,3.13
2023-05-05T14:28:35.115Z,2.97
2023-05-05T14:31:01.803Z,2.97
2023-05-05T14:33:28.517Z,2.72
2023-05-05T14:35:56.197Z,3.30
2023-05-05T14:38:22.944Z,2.92
2023-05-05T14:40:49.620Z,3.30
2023-05-05T14:43:16.374Z,3.03
2023-05-05T14:45:43.617Z,3.10
2023-05-05T14:48:10.505Z,3.03
2023-05-05T14:50:37.887Z,3.10
2023-05-05T14:53:05.309Z,3.28
2023-05-05T14:55:32.230Z,2.88
2023-05-05T14:57:59.048Z,2.80
2023-05-05T15:00:26.164Z,3.28
2023-05-05T15:02:52.800Z,2.67
2023-05-05T15:05:19.557Z,3.50
2023-05-05T15:07:46.254Z,3.28
2023-05-05T15:10:13.522Z,3.35
2023-05-05T15:12:41.473Z,3.50
2023-05-05T15:15:08.990Z,2.90
2023-05-05T15:17:36.709Z,3.33
2023-05-05T15:20:04.793Z,3.30
2023-05-05T15:22:31.557Z,3.35
2023-05-05T15:24:58.948Z,3.75
2023-05-05T15:27:26.335Z,3.15
2023-05-05T15:29:53.723Z,3.35
2023-05-05T15:32:20.592Z,2.83
2023-05-05T15:34:49.005Z,3.60
2023-05-05T15:37:16.893Z,3.08
2023-05-05T15:39:43.453Z,4.47
2023-05-05T15:42:10.054Z,3.50
2023-05-05T15:44:37.379Z,2.95
2023-05-05T15:47:04.254Z,3.20
2023-05-05T15:49:30.935Z,3.28
2023-05-05T15:51:57.693Z,3.20
2023-05-05T15:54:24.526Z,4.20
2023-05-05T15:56:51.118Z,3.85
2023-05-05T15:59:19.021Z,2.92
2023-05-05T16:01:46.875Z,3.72
2023-05-05T16:04:13.866Z,3.75
2023-05-05T16:06:40.725Z,3.83
2023-05-05T16:09:07.375Z,3.40
2023-05-05T16:11:34.262Z,3.15
2023-05-05T16:14:00.904Z,3.25
2023-05-05T16:16:27.519Z,4.35
2023-05-05T16:18:54.950Z,3.67
2023-05-05T16:21:21.604Z,3.72
2023-05-05T16:23:48.216Z,4.18
2023-05-05T16:26:14.934Z,3.22
2023-05-05T16:28:41.537Z,3.53
2023-05-05T16:31:09.848Z,3.28
2023-05-05T16:33:39.988Z,3.10
2023-05-05T16:36:09.520Z,3.80
2023-05-05T16:38:36.117Z,3.92
2023-05-05T16:41:02.988Z,3.85
2023-05-05T16:43:29.796Z,4.25
2023-05-05T16:45:56.431Z,3.92
2023-05-05T16:48:23.064Z,3.13
2023-05-05T16:50:49.887Z,3.50
2023-05-05T16:53:17.173Z,3.60
2023-05-05T16:55:43.872Z,3.90
2023-05-05T16:58:10.452Z,3.80
2023-05-05T17:00:37.077Z,3.95
2023-05-05T17:03:03.829Z,3.42
2023-05-05T17:05:30.482Z,3.63
2023-05-05T17:07:57.187Z,3.40
2023-05-05T17:10:24.681Z,3.40
2023-05-05T17:12:51.326Z,3.40
2023-05-05T17:15:18.222Z,4.13
2023-05-05T17:17:44.891Z,3.55
2023-05-05T17:20:12.352Z,4.05
2023-05-05T17:22:39.001Z,4.15
2023-05-05T17:25:06.791Z,3.28
2023-05-05T17:27:34.171Z,3.80
2023-05-05T17:30:00.807Z,3.85
2023-05-05T17:32:27.426Z,3.63
2023-05-05T17:34:54.105Z,4.30
2023-05-05T17:37:20.776Z,3.83
2023-05-05T17:39:47.422Z,4.10
2023-05-05T17:42:15.932Z,4.22
2023-05-05T17:44:43.301Z,3.80
2023-05-05T17:47:09.924Z,4.15
2023-05-05T17:49:36.623Z,4.20
2023-05-05T17:52:03.666Z,4.13
2023-05-05T17:54:30.478Z,4.30
2023-05-05T17:56:57.088Z,4.00
2023-05-05T17:59:23.744Z,4.22
2023-05-05T18:01:51.001Z,4.88
2023-05-05T18:04:17.670Z,4.63
2023-05-05T18:06:44.300Z,4.47
2023-05-05T18:09:11.447Z,4.80
2023-05-05T18:11:38.062Z,4.40
2023-05-05T18:14:04.722Z,4.53
2023-05-05T18:16:31.649Z,4.63
2023-05-05T18:18:58.983Z,4.70
2023-05-05T18:21:26.210Z,4.17
2023-05-05T18:23:54.387Z,5.40
2023-05-05T18:26:24.107Z,5.50
2023-05-05T18:28:50.718Z,4.03
2023-05-05T18:31:17.456Z,4.63
2023-05-05T18:33:46.066Z,5.10
2023-05-05T18:36:15.376Z,4.73
2023-05-05T18:38:41.985Z,5.10
2023-05-05T18:41:08.607Z,5.00
2023-05-05T18:43:35.183Z,4.27
2023-05-05T18:46:01.806Z,5.20
2023-05-05T18:48:29.401Z,4.40
2023-05-05T18:51:01.082Z,5.00
2023-05-05T18:53:29.480Z,6.53
2023-05-05T18:55:56.328Z,6.40
2023-05-05T18:58:23.676Z,5.40
2023-05-05T19:00:50.543Z,5.57
2023-05-05T19:03:17.316Z,5.17
2023-05-05T19:05:43.916Z,5.13
2023-05-05T19:08:10.523Z,5.17
2023-05-05T19:10:38.068Z,4.87
2023-05-05T19:13:04.988Z,4.67
2023-05-05T19:15:32.047Z,4.70
2023-05-05T19:17:59.058Z,4.80
2023-05-05T19:20:25.857Z,4.60
2023-05-05T19:22:53.014Z,4.47
2023-05-05T19:25:19.792Z,4.67
2023-05-05T19:27:47.163Z,5.10
2023-05-05T19:30:14.068Z,5.30
2023-05-05T19:32:40.735Z,4.20
2023-05-05T19:35:09.672Z,4.90
2023-05-05T19:37:36.969Z,5.07
2023-05-05T19:40:04.567Z,4.97
2023-05-05T19:42:31.251Z,5.13
2023-05-05T19:44:58.548Z,4.80
2023-05-05T19:47:25.683Z,5.77
2023-05-05T19:49:52.377Z,5.37
2023-05-05T19:52:21.891Z,5.47
2023-05-05T19:54:48.520Z,4.93
2023-05-05T19:57:15.612Z,4.80
2023-05-05T19:59:43.067Z,4.33
2023-05-05T20:02:11.439Z,4.80
2023-05-05T20:04:38.626Z,5.40
2023-05-05T20:07:05.299Z,4.93
2023-05-05T20:09:32.030Z,4.37
2023-05-05T20:11:59.211Z,4.67
2023-05-05T20:14:26.220Z,4.87
2023-05-05T20:16:52.896Z,4.40
2023-05-05T20:19:20.180Z,4.27
2023-05-05T20:21:46.877Z,4.70
2023-05-05T20:24:13.780Z,4.43
2023-05-05T20:26:40.628Z,4.97
2023-05-05T20:29:07.262Z,4.97
2023-05-05T20:31:34.523Z,4.53
2023-05-05T20:34:01.175Z,4.57
2023-05-05T20:36:28.566Z,4.80
2023-05-05T20:38:55.225Z,4.50
2023-05-05T20:41:21.785Z,4.63
2023-05-05T20:43:48.516Z,4.83
2023-05-05T20:46:15.703Z,4.83
2023-05-05T20:48:43.214Z,5.03
2023-05-05T20:51:09.903Z,6.47
2023-05-05T20:53:37.321Z,4.47
2023-05-05T20:56:05.748Z,5.03
2023-05-05T20:58:33.388Z,4.57
2023-05-05T21:01:00.412Z,5.37
2023-05-05T21:03:27.354Z,5.37
2023-05-05T21:05:54.237Z,4.83
2023-05-05T21:08:20.943Z,4.83
2023-05-05T21:10:48.240Z,4.90
2023-05-05T21:13:14.941Z,5.10
2023-05-05T21:15:41.728Z,4.90
2023-05-05T21:18:08.453Z,4.70
2023-05-05T21:20:35.120Z,5.00
2023-05-05T21:23:01.701Z,4.83
2023-05-05T21:25:29.892Z,5.00
2023-05-05T21:27:57.112Z,5.47
2023-05-05T21:30:24.038Z,5.07
2023-05-05T21:32:51.625Z,5.17
2023-05-05T21:35:18.512Z,4.90
2023-05-05T21:37:45.224Z,5.57
2023-05-05T21:40:13.059Z,4.63
2023-05-05T21:42:40.614Z,5.00
2023-05-05T21:45:09.899Z,4.43
2023-05-05T21:47:36.674Z,5.27
2023-05-05T21:50:03.491Z,4.90
2023-05-05T21:52:30.120Z,5.43
2023-05-05T21:54:57.020Z,5.50
2023-05-05T21:57:23.810Z,4.40
2023-05-05T21:59:50.640Z,5.00
2023-05-05T22:02:17.916Z,4.37
2023-05-05T22:04:47.664Z,4.13
2023-05-05T22:07:14.682Z,5.83
2023-05-05T22:09:41.317Z,4.80
2023-05-05T22:12:07.966Z,4.80
2023-05-05T22:14:34.541Z,4.90
2023-05-05T22:17:01.133Z,4.77
2023-05-05T22:19:28.384Z,4.17
2023-05-05T22:21:56.735Z,5.37
2023-05-05T22:24:23.632Z,4.57
2023-05-05T22:26:50.268Z,5.07
2023-05-05T22:29:16.913Z,4.03
2023-05-05T22:31:43.517Z,4.17
2023-05-05T22:34:10.889Z,4.87
2023-05-05T22:36:41.709Z,4.23
2023-05-05T22:39:09.025Z,4.87
2023-05-05T22:41:35.901Z,4.60
2023-05-05T22:44:02.540Z,4.93
2023-05-05T22:46:29.174Z,5.07
2023-05-05T22:48:55.958Z,5.10
2023-05-05T22:51:22.932Z,5.23
2023-05-05T22:53:50.378Z,7.10
2023-05-05T22:56:16.962Z,5.20
2023-05-05T22:58:45.732Z,4.93
2023-05-05T23:01:12.654Z,4.97
2023-05-05T23:03:39.427Z,4.67
2023-05-05T23:06:06.240Z,4.87
2023-05-05T23:08:33.190Z,4.90
2023-05-05T23:11:00.821Z,4.87
2023-05-05T23:13:27.516Z,4.03
2023-05-05T23:15:54.117Z,5.57
2023-05-05T23:18:20.735Z,5.20
2023-05-05T23:20:47.344Z,5.33
2023-05-05T23:23:13.991Z,5.43
2023-05-05T23:25:40.585Z,5.40
2023-05-05T23:28:07.890Z,5.87
2023-05-05T23:30:35.898Z,5.87
2023-05-05T23:33:03.256Z,5.50
2023-05-05T23:35:29.944Z,5.60
2023-05-05T23:37:57.329Z,6.20
2023-05-05T23:40:24.087Z,5.73
2023-05-05T23:42:50.690Z,5.57
2023-05-05T23:45:19.460Z,5.07
2023-05-05T23:47:46.338Z,6.37
2023-05-05T23:50:13.280Z,5.43
2023-05-05T23:52:41.034Z,5.10
2023-05-05T23:55:09.422Z,5.60
2023-05-05T23:57:36.498Z,5.60
